createdAt,value
2023-04-18T00:00:29.278Z,41.41
2023-04-18T00:01:29.259Z,40.61
2023-04-18T00:02:29.288Z,41.57
2023-04-18T00:03:29.394Z,41.09
2023-04-18T00:04:29.293Z,42.38
2023-04-18T00:05:29.291Z,41.89
2023-04-18T00:06:29.188Z,39.96
2023-04-18T00:07:29.207Z,41.09
2023-04-18T00:08:29.166Z,41.57
2023-04-18T00:09:29.233Z,40.77
2023-04-18T00:10:29.149Z,42.22
2023-04-18T00:11:29.127Z,41.73
2023-04-18T00:12:29.123Z,43.18
2023-04-18T00:13:29.118Z,41.09
2023-04-18T00:14:29.118Z,41.09
2023-04-18T00:15:29.101Z,40.77
2023-04-18T00:16:29.083Z,40.93
2023-04-18T00:17:29.091Z,40.93
2023-04-18T00:18:29.108Z,41.57
2023-04-18T00:19:29.021Z,41.41
2023-04-18T00:20:28.999Z,41.57
2023-04-18T00:21:29.022Z,44.79
2023-04-18T00:22:28.998Z,41.89
2023-04-18T00:23:29.020Z,41.09
2023-04-18T00:24:28.980Z,41.09
2023-04-18T00:25:29.103Z,40.77
2023-04-18T00:26:28.920Z,41.09
2023-04-18T00:27:28.980Z,42.06
2023-04-18T00:28:28.936Z,42.06
2023-04-18T00:29:28.875Z,41.25
2023-04-18T00:30:28.872Z,41.09
2023-04-18T00:31:28.929Z,40.77
2023-04-18T00:32:28.867Z,41.25
2023-04-18T00:33:28.861Z,41.09
2023-04-18T00:34:28.818Z,41.09
2023-04-18T00:35:28.808Z,40.44
2023-04-18T00:36:28.790Z,43.51
2023-04-18T00:37:28.782Z,41.41
2023-04-18T00:38:28.783Z,39.96
2023-04-18T00:39:28.753Z,41.73
2023-04-18T00:40:28.740Z,43.18
2023-04-18T00:41:28.730Z,41.09
2023-04-18T00:42:28.724Z,41.89
2023-04-18T00:43:28.721Z,40.61
2023-04-18T00:44:28.716Z,41.41
2023-04-18T00:45:28.682Z,40.77
2023-04-18T00:46:28.691Z,41.09
2023-04-18T00:47:28.687Z,41.09
2023-04-18T00:48:28.629Z,41.41
2023-04-18T00:49:28.647Z,41.57
2023-04-18T00:50:28.609Z,42.06
2023-04-18T00:51:28.600Z,41.09
2023-04-18T00:52:28.577Z,41.73
2023-04-18T00:53:28.589Z,41.09
2023-04-18T00:54:28.555Z,42.06
2023-04-18T00:55:28.555Z,41.25
2023-04-18T00:56:28.531Z,42.06
2023-04-18T00:57:28.511Z,41.41
2023-04-18T00:58:28.510Z,42.06
2023-04-18T00:59:28.481Z,41.73
2023-04-18T01:00:28.487Z,41.73
2023-04-18T01:01:28.531Z,41.09
2023-04-18T01:02:28.491Z,40.77
2023-04-18T01:03:28.590Z,42.06
2023-04-18T01:04:28.511Z,40.93
2023-04-18T01:05:28.420Z,41.09
2023-04-18T01:06:28.409Z,41.57
2023-04-18T01:07:28.384Z,41.57
2023-04-18T01:08:28.402Z,43.18
2023-04-18T01:09:28.394Z,42.54
2023-04-18T01:10:28.344Z,42.06
2023-04-18T01:11:28.336Z,41.89
2023-04-18T01:12:28.311Z,42.70
2023-04-18T01:13:28.305Z,41.09
2023-04-18T01:15:38.136Z,42.54
2023-04-18T01:16:38.075Z,42.06
2023-04-18T01:17:38.105Z,41.57
2023-04-18T01:18:38.048Z,42.22
2023-04-18T01:19:38.049Z,42.38
2023-04-18T01:20:38.013Z,42.22
2023-04-18T01:21:38.012Z,43.02
2023-04-18T01:22:38.015Z,41.73
2023-04-18T01:23:38.010Z,41.57
2023-04-18T01:24:37.989Z,41.89
2023-04-18T01:25:37.962Z,42.22
2023-04-18T01:26:37.934Z,42.86
2023-04-18T01:27:37.926Z,41.25
2023-04-18T01:28:37.944Z,41.09
2023-04-18T01:29:39.004Z,40.93
2023-04-18T01:30:37.896Z,41.73
2023-04-18T01:31:37.906Z,42.22
2023-04-18T01:32:37.898Z,41.57
2023-04-18T01:33:37.848Z,40.77
2023-04-18T01:34:37.844Z,42.06
2023-04-18T01:35:37.817Z,42.54
2023-04-18T01:36:37.796Z,42.22
2023-04-18T01:37:37.829Z,41.09
2023-04-18T01:38:37.778Z,41.41
2023-04-18T01:39:37.806Z,41.25
2023-04-18T01:40:37.754Z,41.57
2023-04-18T01:41:37.768Z,41.25
2023-04-18T01:42:37.711Z,41.25
2023-04-18T01:43:37.728Z,39.96
2023-04-18T01:44:37.726Z,41.73
2023-04-18T01:45:37.698Z,42.86
2023-04-18T01:46:37.715Z,43.02
2023-04-18T01:47:37.684Z,41.41
2023-04-18T01:48:37.653Z,41.09
2023-04-18T01:49:37.759Z,41.09
2023-04-18T01:50:37.638Z,41.25
2023-04-18T01:51:37.597Z,41.57
2023-04-18T01:52:37.594Z,41.89
2023-04-18T01:53:37.601Z,41.89
2023-04-18T01:54:37.559Z,43.02
2023-04-18T01:55:37.552Z,41.41
2023-04-18T01:56:37.538Z,42.86
2023-04-18T01:57:37.515Z,42.54
2023-04-18T01:58:37.562Z,42.86
2023-04-18T01:59:37.558Z,42.22
2023-04-18T02:00:37.499Z,42.06
2023-04-18T02:01:37.470Z,41.57
2023-04-18T02:02:37.563Z,41.89
2023-04-18T02:03:37.632Z,42.70
2023-04-18T02:04:37.452Z,43.83
2023-04-18T02:05:37.422Z,42.38
2023-04-18T02:06:37.399Z,42.86
2023-04-18T02:07:37.382Z,42.22
2023-04-18T02:08:37.388Z,41.73
2023-04-18T02:09:37.377Z,41.09
2023-04-18T02:10:37.375Z,40.28
2023-04-18T02:11:37.331Z,41.09
2023-04-18T02:12:37.337Z,41.41
2023-04-18T02:13:37.349Z,41.73
2023-04-18T02:14:37.310Z,42.22
2023-04-18T02:15:37.281Z,40.93
2023-04-18T02:16:37.322Z,41.25
2023-04-18T02:17:37.258Z,43.34
2023-04-18T02:18:37.259Z,42.22
2023-04-18T02:19:37.225Z,42.54
2023-04-18T02:20:37.242Z,41.73
2023-04-18T02:21:37.195Z,41.89
2023-04-18T02:22:37.184Z,42.54
2023-04-18T02:23:37.179Z,42.70
2023-04-18T02:24:37.170Z,42.54
2023-04-18T02:25:37.175Z,44.15
2023-04-18T02:26:37.133Z,42.06
2023-04-18T02:27:37.112Z,41.57
2023-04-18T02:28:37.136Z,42.54
2023-04-18T02:29:37.149Z,42.70
2023-04-18T02:30:37.101Z,43.02
2023-04-18T02:31:37.141Z,42.22
2023-04-18T02:32:37.093Z,43.02
2023-04-18T02:33:37.043Z,43.02
2023-04-18T02:34:37.065Z,43.34
2023-04-18T02:35:37.002Z,41.89
2023-04-18T02:36:37.022Z,42.54
2023-04-18T02:37:36.987Z,42.22
2023-04-18T02:38:36.983Z,42.86
2023-04-18T02:39:36.974Z,43.51
2023-04-18T02:40:36.949Z,43.99
2023-04-18T02:41:36.930Z,42.06
2023-04-18T02:42:36.914Z,42.86
2023-04-18T02:43:36.903Z,42.70
2023-04-18T02:44:36.907Z,43.51
2023-04-18T02:45:36.892Z,43.02
2023-04-18T02:46:36.866Z,43.18
2023-04-18T02:47:43.807Z,44.15
2023-04-18T02:48:37.851Z,43.02
2023-04-18T02:49:36.863Z,43.02
2023-04-18T02:50:36.823Z,43.99
2023-04-18T02:51:36.805Z,44.63
2023-04-18T02:52:36.796Z,42.70
2023-04-18T02:53:36.769Z,43.18
2023-04-18T02:54:36.772Z,43.99
2023-04-18T02:55:36.734Z,43.34
2023-04-18T02:56:36.737Z,44.15
2023-04-18T02:57:36.706Z,43.51
2023-04-18T02:58:36.692Z,43.83
2023-04-18T02:59:36.705Z,43.83
2023-04-18T03:00:36.688Z,44.63
2023-04-18T03:01:36.712Z,46.25
2023-04-18T03:02:36.703Z,46.89
2023-04-18T03:03:36.676Z,45.12
2023-04-18T03:04:36.721Z,44.47
2023-04-18T03:05:36.598Z,44.79
2023-04-18T03:06:36.602Z,45.60
2023-04-18T03:07:36.577Z,44.79
2023-04-18T03:08:36.566Z,44.15
2023-04-18T03:09:36.735Z,43.99
2023-04-18T03:10:36.622Z,43.18
2023-04-18T03:11:36.558Z,45.12
2023-04-18T03:12:36.518Z,43.83
2023-04-18T03:13:36.511Z,43.67
2023-04-18T03:14:36.497Z,44.96
2023-04-18T03:15:36.505Z,44.63
2023-04-18T03:16:36.489Z,45.76
2023-04-18T03:17:36.493Z,46.08
2023-04-18T03:18:36.507Z,46.08
2023-04-18T03:19:36.413Z,44.79
2023-04-18T03:20:36.420Z,43.99
2023-04-18T03:21:36.396Z,44.79
2023-04-18T03:22:36.379Z,46.25
2023-04-18T03:23:36.383Z,45.92
2023-04-18T03:24:36.378Z,45.28
2023-04-18T03:25:36.341Z,53.66
2023-04-18T03:26:36.332Z,45.60
2023-04-18T03:27:36.314Z,44.96
2023-04-18T03:28:36.307Z,46.08
2023-04-18T03:29:36.302Z,50.43
2023-04-18T03:30:36.276Z,48.66
2023-04-18T03:31:36.295Z,45.92
2023-04-18T03:32:36.360Z,45.60
2023-04-18T03:33:36.264Z,46.57
2023-04-18T03:34:36.228Z,46.25
2023-04-18T03:35:36.228Z,54.79
2023-04-18T03:36:36.189Z,45.92
2023-04-18T03:37:36.187Z,48.50
2023-04-18T03:38:36.195Z,46.89
2023-04-18T03:39:36.183Z,45.28
2023-04-18T03:40:36.147Z,48.34
2023-04-18T03:41:36.124Z,45.92
2023-04-18T03:42:36.106Z,53.82
2023-04-18T03:43:36.126Z,46.73
2023-04-18T03:44:36.094Z,50.60
2023-04-18T03:45:36.060Z,50.60
2023-04-18T03:46:36.133Z,52.05
2023-04-18T03:47:36.053Z,48.18
2023-04-18T03:48:36.082Z,68.00
2023-04-18T03:49:36.028Z,47.05
2023-04-18T03:50:35.998Z,49.79
2023-04-18T03:51:36.006Z,53.98
2023-04-18T03:52:35.997Z,65.10
2023-04-18T03:53:35.975Z,53.01
2023-04-18T03:54:35.957Z,53.33
2023-04-18T03:55:35.928Z,49.63
2023-04-18T03:56:35.950Z,55.11
2023-04-18T03:57:35.935Z,54.14
2023-04-18T03:58:35.919Z,61.55
2023-04-18T03:59:35.877Z,57.52
2023-04-18T04:00:35.872Z,55.11
2023-04-18T04:01:35.867Z,47.86
2023-04-18T04:02:35.927Z,57.36
2023-04-18T04:03:36.009Z,50.60
2023-04-18T04:04:35.836Z,49.31
2023-04-18T04:05:35.810Z,47.53
2023-04-18T04:06:35.793Z,57.04
2023-04-18T04:07:35.774Z,63.65
2023-04-18T04:08:35.807Z,49.31
2023-04-18T04:09:35.743Z,54.30
2023-04-18T04:10:35.755Z,53.82
2023-04-18T04:11:35.719Z,55.11
2023-04-18T04:12:35.712Z,55.91
2023-04-18T04:13:35.708Z,53.33
2023-04-18T04:14:35.695Z,48.50
2023-04-18T04:15:35.696Z,48.66
2023-04-18T04:16:35.843Z,51.40
2023-04-18T04:17:35.678Z,49.31
2023-04-18T04:18:35.643Z,52.37
2023-04-18T04:19:35.610Z,48.82
2023-04-18T04:20:35.606Z,48.82
2023-04-18T04:21:35.582Z,61.55
2023-04-18T04:22:35.574Z,52.05
2023-04-18T04:23:35.573Z,51.08
2023-04-18T04:24:35.556Z,50.76
2023-04-18T04:25:35.552Z,53.50
2023-04-18T04:26:35.537Z,51.72
2023-04-18T04:27:35.519Z,49.15
2023-04-18T04:28:35.514Z,58.97
2023-04-18T04:29:35.483Z,49.95
2023-04-18T04:30:35.504Z,58.81
2023-04-18T04:31:35.471Z,52.85
2023-04-18T04:32:35.455Z,55.11
2023-04-18T04:33:35.453Z,52.05
2023-04-18T04:34:35.410Z,51.88
2023-04-18T04:35:35.393Z,58.17
2023-04-18T04:36:35.415Z,57.04
2023-04-18T04:37:35.393Z,48.02
2023-04-18T04:38:35.383Z,50.27
2023-04-18T04:39:35.358Z,51.40
2023-04-18T04:40:35.338Z,53.01
2023-04-18T04:41:35.321Z,50.27
2023-04-18T04:42:35.332Z,55.91
2023-04-18T04:43:35.319Z,53.33
2023-04-18T04:44:35.305Z,52.69
2023-04-18T04:45:35.343Z,54.14
2023-04-18T04:46:35.258Z,49.31
2023-04-18T04:47:35.276Z,49.79
2023-04-18T04:48:35.262Z,53.17
2023-04-18T04:49:35.199Z,57.85
2023-04-18T04:50:35.204Z,50.27
2023-04-18T04:51:35.191Z,52.85
2023-04-18T04:52:35.227Z,52.85
2023-04-18T04:53:35.162Z,53.33
2023-04-18T04:54:35.145Z,47.53
2023-04-18T04:55:35.117Z,52.37
2023-04-18T04:56:35.119Z,57.52
2023-04-18T04:57:35.113Z,48.66
2023-04-18T04:58:35.139Z,48.02
2023-04-18T04:59:35.084Z,49.79
2023-04-18T05:00:35.064Z,57.69
2023-04-18T05:01:35.072Z,59.62
2023-04-18T05:02:35.119Z,53.98
2023-04-18T05:03:35.488Z,47.86
2023-04-18T05:04:35.096Z,51.56
2023-04-18T05:05:34.986Z,61.55
2023-04-18T05:06:34.969Z,49.79
2023-04-18T05:07:35.015Z,48.82
2023-04-18T05:08:35.006Z,48.50
2023-04-18T05:09:34.962Z,49.47
2023-04-18T05:10:34.930Z,49.47
2023-04-18T05:11:34.913Z,49.31
2023-04-18T05:12:34.932Z,50.11
2023-04-18T05:13:34.899Z,48.50
2023-04-18T05:14:34.886Z,60.42
2023-04-18T05:15:34.854Z,50.27
2023-04-18T05:16:34.873Z,50.11
2023-04-18T05:17:34.863Z,48.98
2023-04-18T05:18:35.100Z,48.02
2023-04-18T05:19:34.822Z,49.31
2023-04-18T05:20:34.864Z,50.43
2023-04-18T05:21:34.788Z,53.82
2023-04-18T05:22:34.787Z,48.66
2023-04-18T05:23:34.763Z,48.50
2023-04-18T05:24:34.744Z,50.27
2023-04-18T05:25:34.715Z,51.88
2023-04-18T05:26:34.766Z,48.66
2023-04-18T05:27:34.741Z,51.88
2023-04-18T05:28:35.365Z,57.20
2023-04-18T05:29:34.680Z,52.53
2023-04-18T05:30:34.679Z,52.85
2023-04-18T05:31:34.708Z,47.53
2023-04-18T05:32:34.677Z,56.40
2023-04-18T05:33:34.667Z,51.88
2023-04-18T05:34:35.733Z,49.63
2023-04-18T05:35:34.633Z,51.24
2023-04-18T05:36:34.618Z,50.11
2023-04-18T05:37:34.589Z,48.50
2023-04-18T05:38:34.602Z,56.24
2023-04-18T05:39:34.580Z,50.76
2023-04-18T05:40:34.530Z,58.01
2023-04-18T05:41:34.544Z,57.04
2023-04-18T05:42:34.529Z,57.52
2023-04-18T05:43:34.489Z,52.85
2023-04-18T05:44:34.467Z,56.56
2023-04-18T05:45:34.465Z,51.72
2023-04-18T05:46:34.511Z,55.91
2023-04-18T05:47:34.454Z,51.24
2023-04-18T05:48:34.430Z,56.24
2023-04-18T05:49:34.425Z,51.24
2023-04-18T05:50:34.400Z,58.01
2023-04-18T05:51:34.371Z,52.69
2023-04-18T05:52:34.388Z,55.11
2023-04-18T05:53:34.384Z,56.24
2023-04-18T05:54:34.346Z,56.56
2023-04-18T05:55:34.350Z,57.04
2023-04-18T05:56:34.316Z,54.95
2023-04-18T05:57:34.293Z,56.72
2023-04-18T05:58:34.340Z,59.14
2023-04-18T05:59:34.270Z,53.17
2023-04-18T06:00:34.312Z,63.81
2023-04-18T06:01:34.281Z,50.11
2023-04-18T06:02:34.338Z,52.85
2023-04-18T06:03:34.346Z,52.05
2023-04-18T06:04:34.336Z,54.14
2023-04-18T06:05:34.260Z,56.07
2023-04-18T06:06:34.162Z,52.85
2023-04-18T06:07:34.152Z,53.98
2023-04-18T06:08:34.216Z,49.95
2023-04-18T06:09:34.118Z,50.43
2023-04-18T06:10:34.134Z,48.98
2023-04-18T06:11:34.116Z,49.15
2023-04-18T06:12:34.125Z,52.37
2023-04-18T06:13:34.105Z,52.85
2023-04-18T06:14:34.074Z,52.53
2023-04-18T06:15:34.051Z,51.72
2023-04-18T06:16:34.101Z,49.47
2023-04-18T06:17:34.071Z,50.60
2023-04-18T06:18:34.054Z,49.15
2023-04-18T06:19:33.998Z,51.72
2023-04-18T06:20:33.968Z,54.79
2023-04-18T06:21:33.969Z,50.27
2023-04-18T06:22:34.029Z,48.50
2023-04-18T06:23:33.946Z,47.05
2023-04-18T06:24:33.924Z,47.21
2023-04-18T06:25:33.918Z,47.37
2023-04-18T06:26:33.899Z,52.53
2023-04-18T06:27:33.947Z,54.46
2023-04-18T06:28:33.871Z,51.56
2023-04-18T06:29:34.666Z,52.21
2023-04-18T06:30:33.855Z,50.27
2023-04-18T06:31:33.917Z,54.95
2023-04-18T06:32:33.903Z,46.73
2023-04-18T06:33:33.814Z,46.41
2023-04-18T06:34:33.796Z,52.21
2023-04-18T06:35:33.787Z,58.97
2023-04-18T06:36:33.783Z,48.02
2023-04-18T06:37:33.761Z,50.76
2023-04-18T06:38:33.750Z,50.76
2023-04-18T06:39:33.728Z,49.95
2023-04-18T06:40:33.711Z,50.60
2023-04-18T06:41:33.710Z,47.70
2023-04-18T06:42:33.715Z,47.70
2023-04-18T06:43:33.674Z,48.18
2023-04-18T06:44:33.670Z,48.18
2023-04-18T06:45:33.693Z,48.66
2023-04-18T06:46:33.630Z,55.11
2023-04-18T06:47:33.726Z,49.47
2023-04-18T06:48:33.600Z,48.18
2023-04-18T06:49:33.585Z,56.56
2023-04-18T06:50:33.563Z,51.56
2023-04-18T06:51:33.562Z,62.04
2023-04-18T06:52:33.585Z,51.56
2023-04-18T06:53:33.546Z,50.60
2023-04-18T06:54:33.525Z,49.15
2023-04-18T06:55:33.523Z,66.87
2023-04-18T06:56:34.980Z,47.70
2023-04-18T06:57:33.519Z,48.34
2023-04-18T06:58:33.475Z,48.18
2023-04-18T06:59:33.457Z,51.24
2023-04-18T07:00:33.459Z,49.79
2023-04-18T07:01:33.618Z,49.95
2023-04-18T07:02:33.503Z,50.11
2023-04-18T07:03:33.449Z,51.72
2023-04-18T07:04:33.395Z,48.66
2023-04-18T07:05:33.397Z,48.98
2023-04-18T07:06:33.358Z,53.98
2023-04-18T07:07:33.363Z,51.88
2023-04-18T07:08:33.322Z,48.82
2023-04-18T07:09:33.332Z,52.37
2023-04-18T07:10:33.293Z,56.56
2023-04-18T07:11:33.291Z,55.75
2023-04-18T07:12:33.423Z,53.66
2023-04-18T07:13:33.272Z,58.97
2023-04-18T07:14:34.273Z,58.81
2023-04-18T07:15:33.246Z,50.11
2023-04-18T07:16:33.248Z,50.60
2023-04-18T07:17:33.308Z,48.50
2023-04-18T07:18:38.128Z,48.82
2023-04-18T07:19:34.185Z,47.86
2023-04-18T07:20:33.163Z,57.36
2023-04-18T07:21:33.184Z,48.66
2023-04-18T07:22:33.158Z,51.72
2023-04-18T07:23:33.149Z,50.11
2023-04-18T07:24:33.123Z,48.98
2023-04-18T07:25:33.132Z,50.76
2023-04-18T07:26:33.092Z,49.31
2023-04-18T07:27:33.130Z,55.59
2023-04-18T07:28:33.060Z,49.79
2023-04-18T07:29:33.046Z,51.24
2023-04-18T07:30:33.034Z,48.82
2023-04-18T07:31:33.070Z,48.34
2023-04-18T07:32:33.090Z,48.02
2023-04-18T07:33:33.000Z,52.37
2023-04-18T07:34:32.992Z,48.98
2023-04-18T07:35:32.970Z,49.31
2023-04-18T07:36:32.944Z,53.66
2023-04-18T07:37:32.968Z,50.11
2023-04-18T07:38:32.937Z,53.98
2023-04-18T07:39:32.927Z,48.98
2023-04-18T07:40:32.907Z,48.66
2023-04-18T07:41:32.891Z,51.72
2023-04-18T07:42:32.890Z,49.31
2023-04-18T07:43:32.873Z,50.27
2023-04-18T07:44:32.868Z,50.92
2023-04-18T07:45:32.837Z,51.88
2023-04-18T07:46:32.845Z,50.11
2023-04-18T07:47:33.713Z,48.02
2023-04-18T07:48:32.802Z,49.95
2023-04-18T07:49:32.782Z,48.82
2023-04-18T07:50:32.762Z,57.36
2023-04-18T07:51:32.781Z,61.07
2023-04-18T07:52:32.753Z,57.36
2023-04-18T07:53:32.724Z,70.90
2023-04-18T07:54:32.709Z,63.81
2023-04-18T07:55:32.704Z,70.90
2023-04-18T07:56:32.689Z,74.28
2023-04-18T07:57:32.701Z,65.74
2023-04-18T07:58:32.653Z,76.86
2023-04-18T07:59:32.648Z,67.03
2023-04-18T08:00:32.647Z,69.29
2023-04-18T08:01:32.626Z,72.35
2023-04-18T08:02:32.736Z,71.54
2023-04-18T08:03:32.751Z,69.29
2023-04-18T08:04:32.769Z,67.68
2023-04-18T08:05:32.626Z,71.87
2023-04-18T08:06:32.551Z,69.13
2023-04-18T08:07:32.550Z,67.35
2023-04-18T08:08:32.525Z,64.29
2023-04-18T08:09:32.514Z,68.00
2023-04-18T08:10:32.500Z,67.35
2023-04-18T08:11:32.477Z,52.53
2023-04-18T08:12:32.480Z,51.40
2023-04-18T08:13:32.452Z,50.27
2023-04-18T08:14:32.438Z,48.66
2023-04-18T08:15:32.714Z,53.33
2023-04-18T08:16:32.533Z,51.24
2023-04-18T08:17:32.422Z,49.15
2023-04-18T08:18:32.378Z,53.98
2023-04-18T08:19:32.369Z,48.82
2023-04-18T08:20:32.401Z,48.50
2023-04-18T08:21:32.402Z,49.31
2023-04-18T08:22:32.324Z,47.53
2023-04-18T08:23:32.341Z,51.88
2023-04-18T08:24:32.298Z,50.11
2023-04-18T08:25:32.298Z,51.40
2023-04-18T08:26:32.293Z,50.60
2023-04-18T08:27:32.285Z,48.34
2023-04-18T08:28:32.250Z,48.18
2023-04-18T08:29:32.239Z,48.50
2023-04-18T08:30:32.245Z,47.53
2023-04-18T08:31:32.260Z,50.60
2023-04-18T08:32:32.231Z,48.50
2023-04-18T08:33:32.208Z,48.34
2023-04-18T08:34:32.166Z,48.98
2023-04-18T08:35:32.161Z,49.31
2023-04-18T08:36:32.143Z,51.08
2023-04-18T08:37:32.156Z,52.05
2023-04-18T08:38:32.133Z,49.95
2023-04-18T08:39:32.102Z,48.50
2023-04-18T08:40:32.085Z,50.76
2023-04-18T08:41:32.069Z,48.02
2023-04-18T08:42:32.105Z,51.40
2023-04-18T08:43:32.063Z,48.98
2023-04-18T08:44:32.021Z,48.98
2023-04-18T08:45:32.041Z,49.95
2023-04-18T08:46:32.007Z,49.47
2023-04-18T08:47:32.021Z,48.82
2023-04-18T08:48:31.979Z,52.53
2023-04-18T08:49:31.970Z,48.02
2023-04-18T08:50:31.989Z,51.72
2023-04-18T08:51:31.962Z,47.53
2023-04-18T08:52:31.919Z,53.33
2023-04-18T08:53:31.896Z,50.43
2023-04-18T08:54:31.904Z,52.21
2023-04-18T08:55:31.868Z,54.95
2023-04-18T08:56:31.877Z,55.91
2023-04-18T08:57:31.851Z,48.34
2023-04-18T08:58:31.891Z,51.40
2023-04-18T08:59:31.829Z,48.98
2023-04-18T09:00:31.806Z,64.13
2023-04-18T09:01:31.822Z,52.21
2023-04-18T09:02:31.820Z,53.98
2023-04-18T09:03:31.830Z,52.53
2023-04-18T09:04:31.869Z,53.82
2023-04-18T09:05:31.746Z,54.30
2023-04-18T09:06:31.737Z,52.37
2023-04-18T09:07:31.707Z,51.08
2023-04-18T09:08:31.690Z,51.72
2023-04-18T09:09:31.681Z,47.70
2023-04-18T09:10:31.671Z,49.31
2023-04-18T09:11:31.741Z,50.76
2023-04-18T09:12:31.637Z,48.18
2023-04-18T09:13:31.629Z,48.18
2023-04-18T09:14:31.623Z,48.34
2023-04-18T09:15:31.652Z,49.31
2023-04-18T09:16:31.620Z,52.69
2023-04-18T09:17:31.639Z,50.27
2023-04-18T09:18:31.583Z,49.31
2023-04-18T09:19:31.563Z,48.34
2023-04-18T09:20:31.534Z,49.47
2023-04-18T09:21:31.525Z,47.05
2023-04-18T09:22:31.489Z,47.05
2023-04-18T09:23:31.509Z,46.08
2023-04-18T09:24:31.478Z,49.15
2023-04-18T09:25:31.465Z,51.08
2023-04-18T09:26:31.472Z,46.89
2023-04-18T09:27:31.446Z,47.37
2023-04-18T09:28:31.421Z,50.27
2023-04-18T09:29:31.419Z,47.37
2023-04-18T09:30:31.395Z,47.70
2023-04-18T09:31:31.461Z,48.02
2023-04-18T09:32:31.414Z,47.21
2023-04-18T09:33:31.399Z,46.08
2023-04-18T09:34:31.349Z,47.86
2023-04-18T09:35:31.345Z,55.91
2023-04-18T09:36:31.484Z,56.07
2023-04-18T09:37:31.332Z,51.88
2023-04-18T09:38:31.289Z,52.69
2023-04-18T09:39:31.282Z,54.30
2023-04-18T09:40:31.280Z,49.95
2023-04-18T09:41:31.247Z,56.24
2023-04-18T09:42:31.264Z,61.07
2023-04-18T09:43:31.225Z,61.71
2023-04-18T09:44:31.207Z,70.42
2023-04-18T09:45:31.206Z,62.68
2023-04-18T09:46:31.321Z,73.15
2023-04-18T09:47:31.217Z,72.19
2023-04-18T09:48:31.164Z,75.25
2023-04-18T09:49:31.147Z,67.35
2023-04-18T09:50:31.133Z,67.35
2023-04-18T09:51:31.121Z,62.04
2023-04-18T09:52:31.142Z,70.25
2023-04-18T09:53:31.095Z,68.48
2023-04-18T09:54:31.084Z,67.51
2023-04-18T09:55:31.062Z,65.26
2023-04-18T09:56:31.155Z,55.27
2023-04-18T09:57:31.038Z,57.20
2023-04-18T09:58:31.019Z,49.63
2023-04-18T09:59:31.016Z,59.78
2023-04-18T10:00:30.990Z,52.69
2023-04-18T10:01:31.053Z,52.05
2023-04-18T10:02:31.049Z,51.08
2023-04-18T10:03:31.010Z,58.81
2023-04-18T10:04:31.085Z,59.94
2023-04-18T10:05:31.008Z,54.79
2023-04-18T10:06:30.921Z,52.05
2023-04-18T10:07:30.895Z,54.30
2023-04-18T10:08:30.878Z,64.61
2023-04-18T10:09:30.869Z,59.62
2023-04-18T10:10:30.877Z,56.72
2023-04-18T10:11:30.889Z,68.96
2023-04-18T10:12:30.829Z,50.76
2023-04-18T10:13:30.821Z,50.76
2023-04-18T10:14:30.786Z,69.93
2023-04-18T10:15:30.801Z,53.82
2023-04-18T10:16:30.861Z,52.69
2023-04-18T10:17:30.795Z,62.68
2023-04-18T10:18:30.792Z,60.59
2023-04-18T10:19:30.750Z,53.01
2023-04-18T10:20:30.704Z,51.08
2023-04-18T10:21:30.699Z,48.02
2023-04-18T10:22:30.713Z,49.63
2023-04-18T10:23:30.681Z,47.21
2023-04-18T10:24:30.663Z,49.95
2023-04-18T10:25:30.696Z,51.56
2023-04-18T10:26:30.701Z,60.10
2023-04-18T10:27:30.641Z,59.62
2023-04-18T10:28:30.611Z,61.87
2023-04-18T10:29:30.601Z,57.04
2023-04-18T10:30:30.598Z,47.21
2023-04-18T10:31:30.612Z,61.55
2023-04-18T10:32:30.562Z,54.30
2023-04-18T10:33:32.177Z,56.88
2023-04-18T10:34:30.527Z,59.14
2023-04-18T10:35:30.512Z,66.87
2023-04-18T10:36:30.543Z,51.40
2023-04-18T10:37:30.491Z,48.82
2023-04-18T10:38:30.479Z,49.31
2023-04-18T10:39:30.470Z,51.88
2023-04-18T10:40:30.480Z,50.60
2023-04-18T10:41:30.441Z,49.47
2023-04-18T10:42:30.431Z,51.40
2023-04-18T10:43:30.425Z,54.62
2023-04-18T10:44:30.395Z,49.31
2023-04-18T10:45:30.373Z,61.55
2023-04-18T10:46:32.749Z,50.27
2023-04-18T10:47:30.444Z,52.21
2023-04-18T10:48:30.390Z,54.95
2023-04-18T10:49:32.586Z,51.56
2023-04-18T10:50:30.308Z,52.85
2023-04-18T10:51:30.330Z,55.11
2023-04-18T10:52:30.294Z,58.01
2023-04-18T10:53:30.282Z,56.07
2023-04-18T10:54:30.264Z,51.40
2023-04-18T10:55:30.240Z,50.60
2023-04-18T10:56:30.252Z,56.72
2023-04-18T10:57:30.210Z,59.78
2023-04-18T10:58:30.210Z,56.56
2023-04-18T10:59:30.189Z,52.37
2023-04-18T11:00:30.184Z,54.46
2023-04-18T11:01:32.507Z,52.85
2023-04-18T11:02:30.481Z,58.49
2023-04-18T11:03:30.245Z,54.79
2023-04-18T11:04:30.233Z,50.27
2023-04-18T11:05:30.108Z,61.71
2023-04-18T11:06:30.119Z,51.08
2023-04-18T11:07:30.129Z,66.23
2023-04-18T11:08:30.082Z,74.44
2023-04-18T11:09:30.054Z,57.69
2023-04-18T11:10:30.049Z,58.01
2023-04-18T11:11:30.102Z,57.52
2023-04-18T11:12:30.013Z,57.36
2023-04-18T11:13:30.001Z,65.42
2023-04-18T11:14:29.982Z,54.62
2023-04-18T11:15:31.096Z,60.59
2023-04-18T11:16:30.024Z,54.62
2023-04-18T11:17:29.975Z,56.07
2023-04-18T11:18:29.937Z,57.36
2023-04-18T11:19:29.921Z,67.51
2023-04-18T11:20:29.976Z,64.13
2023-04-18T11:21:30.801Z,54.30
2023-04-18T11:22:29.890Z,58.49
2023-04-18T11:23:29.858Z,65.74
2023-04-18T11:24:29.851Z,57.69
2023-04-18T11:25:29.886Z,49.15
2023-04-18T11:26:29.835Z,53.17
2023-04-18T11:27:29.835Z,65.74
2023-04-18T11:28:29.807Z,56.40
2023-04-18T11:29:29.774Z,48.66
2023-04-18T11:30:29.832Z,50.60
2023-04-18T11:31:29.785Z,52.69
2023-04-18T11:32:29.906Z,58.01
2023-04-18T11:33:29.747Z,70.25
2023-04-18T11:34:29.711Z,54.79
2023-04-18T11:35:29.717Z,56.24
2023-04-18T11:36:29.696Z,54.30
2023-04-18T11:37:29.682Z,53.33
2023-04-18T11:38:29.663Z,53.33
2023-04-18T11:39:29.654Z,61.39
2023-04-18T11:40:29.699Z,55.59
2023-04-18T11:41:29.616Z,63.33
2023-04-18T11:42:29.618Z,59.78
2023-04-18T11:43:29.611Z,52.37
2023-04-18T11:44:29.586Z,53.33
2023-04-18T11:45:29.599Z,53.82
2023-04-18T11:46:29.633Z,60.42
2023-04-18T11:47:29.576Z,55.59
2023-04-18T11:48:29.531Z,56.24
2023-04-18T11:49:29.509Z,58.97
2023-04-18T11:50:29.508Z,56.07
2023-04-18T11:51:29.523Z,53.50
2023-04-18T11:52:29.474Z,55.11
2023-04-18T11:53:29.452Z,59.62
2023-04-18T11:54:29.445Z,58.33
2023-04-18T11:55:29.452Z,54.62
2023-04-18T11:56:29.410Z,57.36
2023-04-18T11:57:29.402Z,54.79
2023-04-18T11:58:29.387Z,63.65
2023-04-18T11:59:29.364Z,56.56
2023-04-18T12:00:29.389Z,58.81
2023-04-18T12:01:29.348Z,64.29
2023-04-18T12:02:29.466Z,69.61
2023-04-18T12:03:29.746Z,53.33
2023-04-18T12:04:29.569Z,55.43
2023-04-18T12:05:29.426Z,55.43
2023-04-18T12:06:29.404Z,55.27
2023-04-18T12:07:29.266Z,51.24
2023-04-18T12:08:29.250Z,54.30
2023-04-18T12:09:29.237Z,57.04
2023-04-18T12:10:29.265Z,53.33
2023-04-18T12:11:29.213Z,50.76
2023-04-18T12:12:29.199Z,53.01
2023-04-18T12:13:29.305Z,49.63
2023-04-18T12:14:29.166Z,48.66
2023-04-18T12:15:29.182Z,49.79
2023-04-18T12:16:29.264Z,46.57
2023-04-18T12:17:29.249Z,51.56
2023-04-18T12:18:29.123Z,50.11
2023-04-18T12:19:29.160Z,51.08
2023-04-18T12:20:29.210Z,51.88
2023-04-18T12:21:29.172Z,52.21
2023-04-18T12:22:29.157Z,51.08
2023-04-18T12:23:29.091Z,53.98
2023-04-18T12:24:29.143Z,60.10
2023-04-18T12:25:29.063Z,50.76
2023-04-18T12:26:29.137Z,48.02
2023-04-18T12:27:29.005Z,46.41
2023-04-18T12:28:28.987Z,52.37
2023-04-18T12:29:28.963Z,51.40
2023-04-18T12:30:28.986Z,49.63
2023-04-18T12:31:28.989Z,49.95
2023-04-18T12:32:28.958Z,49.47
2023-04-18T12:33:28.927Z,51.24
2023-04-18T12:34:28.928Z,50.27
2023-04-18T12:35:28.947Z,55.11
2023-04-18T12:36:28.877Z,58.49
2023-04-18T12:37:28.865Z,63.00
2023-04-18T12:38:28.852Z,53.17
2023-04-18T12:39:28.840Z,49.31
2023-04-18T12:40:28.848Z,52.85
2023-04-18T12:41:28.807Z,51.72
2023-04-18T12:42:28.794Z,50.43
2023-04-18T12:43:28.780Z,59.30
2023-04-18T12:44:28.770Z,51.40
2023-04-18T12:45:28.777Z,51.40
2023-04-18T12:46:28.796Z,54.14
2023-04-18T12:47:28.751Z,50.76
2023-04-18T12:48:28.745Z,50.76
2023-04-18T12:49:28.699Z,49.63
2023-04-18T12:50:28.734Z,52.69
2023-04-18T12:51:28.682Z,51.56
2023-04-18T12:52:28.683Z,52.21
2023-04-18T12:53:28.651Z,58.81